createdAt,value
2018-04-08T00:00:26.681Z,98.65
2018-04-08T00:01:26.689Z,98.65
2018-04-08T00:02:26.757Z,98.75
2018-04-08T00:03:26.726Z,99.51
2018-04-08T00:04:26.773Z,98.65
2018-04-08T00:05:26.760Z,99.51
2018-04-08T00:06:26.776Z,98.75
2018-04-08T00:07:26.794Z,98.65
2018-04-08T00:08:26.813Z,98.75
2018-04-08T00:09:26.827Z,98.75
2018-04-08T00:10:26.923Z,98.56
2018-04-08T00:11:26.864Z,98.65
2018-04-08T00:12:26.892Z,98.65
2018-04-08T00:13:26.899Z,98.94
2018-04-08T00:14:26.966Z,98.46
2018-04-08T00:15:26.931Z,98.56
2018-04-08T00:16:26.955Z,97.99
2018-04-08T00:17:26.963Z,98.36
2018-04-08T00:18:26.982Z,97.56
2018-04-08T00:19:26.999Z,97.32
2018-04-08T00:20:27.064Z,96.70
2018-04-08T00:21:27.065Z,96.89
2018-04-08T00:22:27.057Z,97.27
2018-04-08T00:23:27.072Z,96.03
2018-04-08T00:24:27.083Z,96.03
2018-04-08T00:25:27.107Z,95.65
2018-04-08T00:26:27.117Z,94.41
2018-04-08T00:27:27.135Z,94.98
2018-04-08T00:28:27.150Z,94.79
2018-04-08T00:29:27.167Z,94.89
2018-04-08T00:30:27.185Z,94.98
2018-04-08T00:31:27.199Z,94.70
2018-04-08T00:32:27.272Z,94.79
2018-04-08T00:33:27.233Z,94.98
2018-04-08T00:34:27.253Z,94.37
2018-04-08T00:35:27.275Z,94.98
2018-04-08T00:36:27.284Z,95.03
2018-04-08T00:37:27.297Z,95.51
2018-04-08T00:38:27.377Z,95.56
2018-04-08T00:39:27.336Z,94.70
2018-04-08T00:40:27.352Z,94.32
2018-04-08T00:41:27.368Z,94.51
2018-04-08T00:42:27.384Z,93.84
2018-04-08T00:43:27.410Z,94.03
2018-04-08T00:44:27.497Z,94.12
2018-04-08T00:45:27.446Z,93.93
2018-04-08T00:46:27.454Z,93.32
2018-04-08T00:47:27.471Z,94.22
2018-04-08T00:48:27.488Z,93.79
2018-04-08T00:49:27.582Z,93.98
2018-04-08T00:50:27.830Z,93.98
2018-04-08T00:51:27.537Z,94.27
2018-04-08T00:52:27.562Z,94.65
2018-04-08T00:53:27.570Z,95.03
2018-04-08T00:54:27.598Z,95.61
2018-04-08T00:55:27.615Z,94.93
2018-04-08T00:56:27.926Z,95.12
2018-04-08T00:57:27.642Z,95.70
2018-04-08T00:58:27.706Z,95.70
2018-04-08T00:59:27.673Z,96.17
2018-04-08T01:00:27.689Z,95.98
2018-04-08T01:01:27.707Z,97.13
2018-04-08T01:02:28.026Z,97.03
2018-04-08T01:03:27.741Z,96.75
2018-04-08T01:04:27.757Z,97.22
2018-04-08T01:05:27.773Z,97.41
2018-04-08T01:06:27.854Z,97.22
2018-04-08T01:07:27.816Z,96.75
2018-04-08T01:08:28.128Z,95.70
2018-04-08T01:09:27.842Z,95.70
2018-04-08T01:10:27.866Z,94.08
2018-04-08T01:11:27.878Z,93.98
2018-04-08T01:12:27.902Z,93.88
2018-04-08T01:13:27.908Z,94.08
2018-04-08T01:14:28.236Z,92.55
2018-04-08T01:15:27.943Z,92.79
2018-04-08T01:16:27.958Z,92.60
2018-04-08T01:17:27.976Z,92.69
2018-04-08T01:18:28.006Z,92.32
2018-04-08T01:19:28.011Z,92.69
2018-04-08T01:20:28.327Z,93.46
2018-04-08T01:21:28.053Z,93.17
2018-04-08T01:22:28.068Z,92.98
2018-04-08T01:23:28.077Z,93.17
2018-04-08T01:24:28.102Z,93.55
2018-04-08T01:25:28.112Z,93.74
2018-04-08T01:26:28.430Z,93.65
2018-04-08T01:27:28.147Z,93.79
2018-04-08T01:28:28.163Z,93.79
2018-04-08T01:29:28.181Z,93.84
2018-04-08T01:30:28.197Z,93.22
2018-04-08T01:31:28.220Z,94.08
2018-04-08T01:32:28.280Z,94.56
2018-04-08T01:33:28.251Z,94.37
2018-04-08T01:34:28.260Z,95.12
2018-04-08T01:35:28.281Z,94.56
2018-04-08T01:36:28.296Z,95.51
2018-04-08T01:37:28.314Z,95.51
2018-04-08T01:38:28.381Z,95.22
2018-04-08T01:39:28.347Z,95.98
2018-04-08T01:40:28.361Z,96.17
2018-04-08T01:41:28.389Z,96.46
2018-04-08T01:42:28.395Z,95.98
2018-04-08T01:43:28.432Z,96.65
2018-04-08T01:44:28.481Z,96.75
2018-04-08T01:45:28.448Z,96.56
2018-04-08T01:46:28.493Z,96.84
2018-04-08T01:47:28.481Z,96.75
2018-04-08T01:48:28.496Z,97.41
2018-04-08T01:49:28.514Z,96.94
2018-04-08T01:50:28.538Z,97.61
2018-04-08T01:51:28.544Z,97.41
2018-04-08T01:52:28.644Z,96.80
2018-04-08T01:53:28.592Z,97.61
2018-04-08T01:54:28.607Z,96.94
2018-04-08T01:55:28.620Z,97.61
2018-04-08T01:56:28.687Z,97.61
2018-04-08T01:57:28.657Z,97.13
2018-04-08T01:58:28.664Z,97.27
2018-04-08T01:59:28.677Z,97.32
2018-04-08T02:00:28.696Z,97.22
2018-04-08T02:01:28.710Z,97.22
2018-04-08T02:02:28.782Z,97.22
2018-04-08T02:03:28.786Z,97.61
2018-04-08T02:04:28.762Z,97.36
2018-04-08T02:05:28.779Z,97.36
2018-04-08T02:06:28.796Z,97.22
2018-04-08T02:07:28.811Z,96.94
2018-04-08T02:08:28.828Z,97.56
2018-04-08T02:09:28.848Z,97.70
2018-04-08T02:10:28.863Z,97.36
2018-04-08T02:11:28.887Z,97.46
2018-04-08T02:12:28.898Z,97.08
2018-04-08T02:13:28.913Z,97.84
2018-04-08T02:14:28.989Z,97.94
2018-04-08T02:15:28.943Z,97.94
2018-04-08T02:16:28.963Z,97.94
2018-04-08T02:17:28.986Z,98.13
2018-04-08T02:18:28.997Z,98.13
2018-04-08T02:19:29.059Z,98.13
2018-04-08T02:20:29.051Z,97.94
2018-04-08T02:21:29.055Z,98.13
2018-04-08T02:22:29.064Z,98.13
2018-04-08T02:23:29.079Z,98.13
2018-04-08T02:24:29.106Z,98.13
2018-04-08T02:25:29.112Z,98.13
2018-04-08T02:26:29.242Z,97.84
2018-04-08T02:27:29.146Z,97.36
2018-04-08T02:28:29.163Z,97.56
2018-04-08T02:29:29.184Z,97.46
2018-04-08T02:30:29.198Z,97.08
2018-04-08T02:31:29.214Z,96.98
2018-04-08T02:32:29.230Z,97.46
2018-04-08T02:33:29.244Z,97.27
2018-04-08T02:34:29.263Z,97.75
2018-04-08T02:35:29.280Z,97.17
2018-04-08T02:36:29.297Z,96.89
2018-04-08T02:37:29.324Z,97.17
2018-04-08T02:38:29.378Z,97.56
2018-04-08T02:39:29.349Z,97.46
2018-04-08T02:40:29.363Z,97.27
2018-04-08T02:41:29.381Z,97.65
2018-04-08T02:42:29.395Z,97.17
2018-04-08T02:43:29.417Z,97.08
2018-04-08T02:44:29.436Z,97.46
2018-04-08T02:45:29.452Z,96.98
2018-04-08T02:46:29.464Z,96.51
2018-04-08T02:47:29.487Z,96.60
2018-04-08T02:48:29.498Z,96.70
2018-04-08T02:49:29.514Z,96.89
2018-04-08T02:50:29.582Z,96.98
2018-04-08T02:51:29.547Z,96.98
2018-04-08T02:52:29.574Z,96.70
2018-04-08T02:53:29.589Z,96.41
2018-04-08T02:54:29.654Z,96.03
2018-04-08T02:55:29.616Z,96.12
2018-04-08T02:56:29.683Z,96.32
2018-04-08T02:57:29.657Z,96.22
2018-04-08T02:58:29.674Z,96.32
2018-04-08T02:59:29.692Z,96.12
2018-04-08T03:00:29.699Z,96.12
2018-04-08T03:01:29.712Z,96.03
2018-04-08T03:03:37.421Z,96.12
2018-04-08T03:04:29.766Z,96.32
2018-04-08T03:05:29.779Z,96.12
2018-04-08T03:06:29.805Z,96.70
2018-04-08T03:07:29.814Z,96.70
2018-04-08T03:08:29.837Z,96.51
2018-04-08T03:09:29.900Z,96.89
2018-04-08T03:10:29.872Z,97.17
2018-04-08T03:11:29.894Z,96.70
2018-04-08T03:12:29.909Z,96.60
2018-04-08T03:13:29.922Z,96.80
2018-04-08T03:14:29.934Z,96.51
2018-04-08T03:15:29.949Z,97.17
2018-04-08T03:16:29.969Z,96.51
2018-04-08T03:17:30.065Z,96.51
2018-04-08T03:18:29.998Z,96.89
2018-04-08T03:19:30.019Z,96.98
2018-04-08T03:20:30.034Z,96.60
2018-04-08T03:21:30.058Z,96.98
2018-04-08T03:22:30.070Z,96.98
2018-04-08T03:23:30.085Z,96.51
2018-04-08T03:24:30.101Z,96.51
2018-04-08T03:25:30.125Z,96.51
2018-04-08T03:26:30.138Z,96.80
2018-04-08T03:27:30.152Z,96.51
2018-04-08T03:28:30.170Z,96.80
2018-04-08T03:29:30.185Z,96.60
2018-04-08T03:30:30.211Z,96.80
2018-04-08T03:31:30.220Z,97.08
2018-04-08T03:32:30.291Z,97.17
2018-04-08T03:33:30.253Z,97.36
2018-04-08T03:34:30.308Z,96.80
2018-04-08T03:35:30.283Z,97.46
2018-04-08T03:36:30.303Z,97.46
2018-04-08T03:37:30.318Z,97.27
2018-04-08T03:38:30.335Z,96.98
2018-04-08T03:39:30.355Z,96.89
2018-04-08T03:40:30.383Z,97.36
2018-04-08T03:41:30.402Z,97.65
2018-04-08T03:42:30.406Z,96.51
2018-04-08T03:43:30.441Z,96.75
2018-04-08T03:44:30.440Z,96.60
2018-04-08T03:45:30.455Z,97.17
2018-04-08T03:46:30.480Z,96.70
2018-04-08T03:47:30.491Z,96.60
2018-04-08T03:48:30.512Z,97.17
2018-04-08T03:49:30.534Z,96.98
2018-04-08T03:50:30.550Z,97.65
2018-04-08T03:51:30.611Z,97.03
2018-04-08T03:52:30.573Z,97.46
2018-04-08T03:53:30.589Z,97.36
2018-04-08T03:54:30.606Z,97.27
2018-04-08T03:55:30.625Z,97.17
2018-04-08T03:56:30.649Z,97.32
2018-04-08T03:57:30.659Z,97.22
2018-04-08T03:58:30.677Z,97.32
2018-04-08T03:59:30.690Z,97.32
2018-04-08T04:00:30.710Z,97.41
2018-04-08T04:01:30.725Z,97.22
2018-04-08T04:02:30.782Z,97.22
2018-04-08T04:03:30.761Z,97.22
2018-04-08T04:04:30.780Z,97.17
2018-04-08T04:05:30.798Z,97.27
2018-04-08T04:06:30.809Z,97.17
2018-04-08T04:07:30.826Z,97.08
2018-04-08T04:08:30.847Z,97.41
2018-04-08T04:09:30.861Z,97.56
2018-04-08T04:10:30.880Z,96.94
2018-04-08T04:11:30.900Z,97.51
2018-04-08T04:12:30.923Z,97.51
2018-04-08T04:13:30.933Z,97.13
2018-04-08T04:14:30.954Z,97.03
2018-04-08T04:15:30.965Z,97.03
2018-04-08T04:16:30.982Z,97.32
2018-04-08T04:17:31.009Z,97.13
2018-04-08T04:18:31.015Z,97.32
2018-04-08T04:19:31.033Z,97.51
2018-04-08T04:20:31.051Z,97.41
2018-04-08T04:21:31.077Z,97.22
2018-04-08T04:22:31.084Z,97.70
2018-04-08T04:23:31.099Z,97.13
2018-04-08T04:24:31.115Z,96.56
2018-04-08T04:25:31.140Z,97.03
2018-04-08T04:26:31.158Z,96.75
2018-04-08T04:27:31.168Z,96.75
2018-04-08T04:28:31.190Z,97.22
2018-04-08T04:29:31.200Z,96.56
2018-04-08T04:30:31.263Z,97.22
2018-04-08T04:31:31.238Z,96.84
2018-04-08T04:32:31.260Z,96.94
2018-04-08T04:33:31.268Z,97.51
2018-04-08T04:34:31.289Z,97.22
2018-04-08T04:35:31.303Z,97.41
2018-04-08T04:36:31.391Z,97.22
2018-04-08T04:37:31.336Z,97.32
2018-04-08T04:38:31.361Z,98.18
2018-04-08T04:39:31.373Z,97.61
2018-04-08T04:40:31.391Z,97.13
2018-04-08T04:41:31.415Z,97.51
2018-04-08T04:42:31.422Z,97.22
2018-04-08T04:43:31.440Z,97.22
2018-04-08T04:44:31.468Z,97.51
2018-04-08T04:45:31.480Z,96.84
2018-04-08T04:46:31.491Z,97.41
2018-04-08T04:47:31.596Z,97.41
2018-04-08T04:48:31.528Z,97.51
2018-04-08T04:49:31.549Z,98.36
2018-04-08T04:50:31.559Z,98.36
2018-04-08T04:51:31.583Z,97.94
2018-04-08T04:52:31.591Z,98.22
2018-04-08T04:53:31.615Z,98.51
2018-04-08T04:54:31.627Z,98.70
2018-04-08T04:55:31.642Z,98.22
2018-04-08T04:56:31.661Z,97.99
2018-04-08T04:57:31.680Z,97.99
2018-04-08T04:58:31.702Z,96.80
2018-04-08T04:59:31.710Z,97.61
2018-04-08T05:00:31.727Z,97.32
2018-04-08T05:01:31.744Z,97.80
2018-04-08T05:02:31.770Z,97.08
2018-04-08T05:03:31.779Z,97.99
2018-04-08T05:04:31.876Z,97.51
2018-04-08T05:05:31.808Z,97.32
2018-04-08T05:06:31.838Z,97.61
2018-04-08T05:07:31.852Z,97.13
2018-04-08T05:08:31.865Z,96.75
2018-04-08T05:09:31.879Z,96.98
2018-04-08T05:10:31.896Z,96.94
2018-04-08T05:11:31.911Z,96.84
2018-04-08T05:12:31.947Z,97.22
2018-04-08T05:13:31.973Z,96.70
2018-04-08T05:14:31.961Z,96.75
2018-04-08T05:15:31.977Z,96.70
2018-04-08T05:16:31.994Z,96.94
2018-04-08T05:17:32.015Z,96.70
2018-04-08T05:18:32.033Z,96.75
2018-04-08T05:19:32.046Z,96.70
2018-04-08T05:20:32.064Z,96.98
2018-04-08T05:21:32.121Z,96.22
2018-04-08T05:22:32.100Z,95.94
2018-04-08T05:23:32.116Z,96.22
2018-04-08T05:24:32.132Z,95.94
2018-04-08T05:25:32.148Z,95.84
2018-04-08T05:26:32.166Z,95.84
2018-04-08T05:27:32.193Z,96.22
2018-04-08T05:28:32.203Z,95.46
2018-04-08T05:29:32.219Z,95.36
2018-04-08T05:30:32.234Z,95.46
2018-04-08T05:31:32.262Z,95.65
2018-04-08T05:32:32.292Z,94.98
2018-04-08T05:33:32.285Z,94.70
2018-04-08T05:34:32.303Z,95.08
2018-04-08T05:35:32.320Z,94.60
2018-04-08T05:36:32.334Z,95.36
2018-04-08T05:37:32.372Z,95.84
2018-04-08T05:38:32.374Z,95.36
2018-04-08T05:39:32.400Z,95.27
2018-04-08T05:40:32.414Z,95.65
2018-04-08T05:41:32.422Z,95.46
2018-04-08T05:42:32.451Z,94.70
2018-04-08T05:43:32.465Z,95.84
2018-04-08T05:44:32.531Z,95.56
2018-04-08T05:45:32.488Z,94.89
2018-04-08T05:46:32.509Z,95.65
2018-04-08T05:47:32.529Z,95.27
2018-04-08T05:48:32.541Z,95.46
2018-04-08T05:49:32.566Z,95.65
2018-04-08T05:50:32.618Z,95.27
2018-04-08T05:51:32.589Z,95.36
2018-04-08T05:52:32.608Z,95.65
2018-04-08T05:53:32.622Z,95.36
2018-04-08T05:54:32.641Z,95.27
2018-04-08T05:55:32.664Z,95.27
2018-04-08T05:56:32.674Z,95.36
2018-04-08T05:57:32.700Z,95.84
2018-04-08T05:58:32.707Z,95.46
2018-04-08T05:59:32.723Z,95.65
2018-04-08T06:00:32.738Z,95.65
2018-04-08T06:01:32.772Z,95.65
2018-04-08T06:02:32.782Z,95.65
2018-04-08T06:03:32.792Z,95.65
2018-04-08T06:04:32.804Z,95.36
2018-04-08T06:05:32.834Z,95.56
2018-04-08T06:06:32.839Z,95.27
2018-04-08T06:07:32.859Z,95.65
2018-04-08T06:08:32.878Z,95.65
2018-04-08T06:09:32.891Z,96.32
2018-04-08T06:10:32.919Z,96.03
2018-04-08T06:11:32.932Z,95.65
2018-04-08T06:12:32.942Z,96.12
2018-04-08T06:13:33.017Z,95.84
2018-04-08T06:14:32.989Z,96.80
2018-04-08T06:15:33.000Z,96.22
2018-04-08T06:16:33.008Z,96.03
2018-04-08T06:17:33.037Z,95.84
2018-04-08T06:18:33.041Z,95.75
2018-04-08T06:19:33.058Z,95.56
2018-04-08T06:20:33.084Z,96.03
2018-04-08T06:21:33.095Z,96.12
2018-04-08T06:22:33.110Z,96.12
2018-04-08T06:23:33.129Z,95.75
2018-04-08T06:24:33.142Z,95.65
2018-04-08T06:25:33.180Z,96.03
2018-04-08T06:26:33.177Z,95.84
2018-04-08T06:27:33.194Z,95.65
2018-04-08T06:28:33.213Z,95.94
2018-04-08T06:29:33.227Z,95.94
2018-04-08T06:30:33.242Z,96.12
2018-04-08T06:31:33.259Z,96.03
2018-04-08T06:32:33.280Z,95.84
2018-04-08T06:33:33.298Z,95.65
2018-04-08T06:34:33.318Z,95.65
2018-04-08T06:35:33.331Z,94.93
2018-04-08T06:36:33.380Z,94.93
2018-04-08T06:37:33.362Z,94.65
2018-04-08T06:38:33.386Z,94.46
2018-04-08T06:39:33.395Z,94.46
2018-04-08T06:40:33.410Z,94.17
2018-04-08T06:41:33.425Z,94.17
2018-04-08T06:42:33.516Z,94.27
2018-04-08T06:43:33.505Z,94.17
2018-04-08T06:44:33.494Z,93.74
2018-04-08T06:45:33.495Z,92.98
2018-04-08T06:46:33.510Z,92.79
2018-04-08T06:47:33.528Z,92.98
2018-04-08T06:48:33.546Z,92.88
2018-04-08T06:49:33.573Z,92.88
2018-04-08T06:50:33.579Z,92.69
2018-04-08T06:51:33.604Z,92.22
2018-04-08T06:52:33.626Z,91.93
2018-04-08T06:53:33.629Z,91.64
2018-04-08T06:54:33.648Z,91.64
2018-04-08T06:55:33.701Z,91.55
2018-04-08T06:56:33.682Z,90.88
2018-04-08T06:57:33.708Z,91.12
2018-04-08T06:58:33.723Z,90.83
2018-04-08T06:59:33.765Z,90.31
2018-04-08T07:00:33.750Z,90.83
2018-04-08T07:01:33.767Z,91.55
2018-04-08T07:02:33.788Z,90.79
2018-04-08T07:03:33.799Z,90.79
2018-04-08T07:04:33.828Z,91.36
2018-04-08T07:05:33.879Z,91.17
2018-04-08T07:06:33.862Z,91.46
2018-04-08T07:07:33.878Z,90.88
2018-04-08T07:08:33.888Z,91.41
2018-04-08T07:09:33.953Z,91.21
2018-04-08T07:10:33.921Z,90.73
2018-04-08T07:11:33.984Z,90.36
2018-04-08T07:12:33.954Z,90.55
2018-04-08T07:13:33.974Z,90.93
2018-04-08T07:14:33.988Z,88.78
2018-04-08T07:15:34.008Z,86.82
2018-04-08T07:16:34.028Z,85.42
2018-04-08T07:17:34.045Z,83.80
2018-04-08T07:18:34.081Z,82.31
2018-04-08T07:19:34.087Z,81.74
2018-04-08T07:20:34.107Z,82.31
2018-04-08T07:21:34.114Z,82.28
2018-04-08T07:22:34.140Z,82.75
2018-04-08T07:23:34.156Z,83.33
2018-04-08T07:24:34.301Z,85.10
2018-04-08T07:25:34.183Z,85.86
2018-04-08T07:26:34.198Z,86.72
2018-04-08T07:27:34.224Z,86.05
2018-04-08T07:28:34.326Z,86.49
2018-04-08T07:29:34.249Z,86.30
2018-04-08T07:30:34.281Z,87.15
2018-04-08T07:31:34.289Z,87.35
2018-04-08T07:32:34.352Z,87.73
2018-04-08T07:33:34.323Z,87.63
2018-04-08T07:34:34.425Z,87.73
2018-04-08T07:35:34.357Z,87.06
2018-04-08T07:36:34.385Z,86.53
2018-04-08T07:37:34.393Z,86.15
2018-04-08T07:38:34.413Z,85.42
2018-04-08T07:39:34.430Z,83.42
2018-04-08T07:40:34.457Z,83.08
2018-04-08T07:41:34.466Z,82.12
2018-04-08T07:42:34.494Z,80.35
2018-04-08T07:43:34.500Z,78.86
2018-04-08T07:44:34.517Z,78.28
2018-04-08T07:45:34.532Z,77.90
2018-04-08T07:46:34.565Z,77.08
2018-04-08T07:47:34.584Z,76.02
2018-04-08T07:48:34.590Z,74.72
2018-04-08T07:49:34.619Z,73.57
2018-04-08T07:50:34.638Z,73.86
2018-04-08T07:51:34.680Z,72.99
2018-04-08T07:52:34.662Z,72.80
2018-04-08T07:53:34.693Z,72.90
2018-04-08T07:54:34.701Z,73.03
2018-04-08T07:55:34.717Z,72.52
2018-04-08T07:56:34.746Z,72.27
2018-04-08T07:57:34.755Z,70.67
2018-04-08T07:58:34.775Z,71.11
2018-04-08T07:59:34.792Z,72.64
2018-04-08T08:00:34.816Z,72.07
2018-04-08T08:01:34.830Z,72.36
2018-04-08T08:02:34.853Z,71.98
2018-04-08T08:03:34.871Z,72.07
2018-04-08T08:04:34.899Z,72.61
2018-04-08T08:05:34.907Z,73.28
2018-04-08T08:06:34.934Z,73.38
2018-04-08T08:07:34.946Z,74.33
2018-04-08T08:08:34.966Z,74.24
2018-04-08T08:09:34.995Z,73.86
2018-04-08T08:10:35.008Z,73.03
2018-04-08T08:11:35.032Z,71.82
2018-04-08T08:12:35.042Z,70.86
2018-04-08T08:13:35.118Z,70.57
2018-04-08T08:14:35.083Z,71.63
2018-04-08T08:15:35.102Z,69.81
2018-04-08T08:16:35.132Z,68.66
2018-04-08T08:17:35.141Z,68.95
2018-04-08T08:18:35.161Z,69.23
2018-04-08T08:19:35.266Z,69.58
2018-04-08T08:20:35.201Z,70.15
2018-04-08T08:21:35.217Z,70.35
2018-04-08T08:22:35.245Z,69.42
2018-04-08T08:23:35.308Z,70.29
2018-04-08T08:24:35.279Z,68.08
2018-04-08T08:25:35.295Z,67.63
2018-04-08T08:26:35.326Z,66.19
2018-04-08T08:27:35.336Z,66.13
2018-04-08T08:28:35.359Z,66.67
2018-04-08T08:29:35.384Z,66.96
2018-04-08T08:30:35.425Z,66.03
2018-04-08T08:31:35.419Z,65.84
2018-04-08T08:32:35.440Z,65.36
2018-04-08T08:33:35.457Z,64.05
2018-04-08T08:34:35.477Z,63.73
2018-04-08T08:35:35.497Z,63.57
2018-04-08T08:36:35.544Z,62.04
2018-04-08T08:37:35.538Z,65.43
2018-04-08T08:38:35.559Z,66.93
2018-04-08T08:39:35.587Z,67.79
2018-04-08T08:40:35.601Z,68.72
2018-04-08T08:41:35.627Z,68.66
2018-04-08T08:42:35.641Z,67.99
2018-04-08T08:43:35.678Z,69.23
2018-04-08T08:44:35.692Z,70.06
2018-04-08T08:45:35.708Z,69.93
2018-04-08T08:46:35.722Z,70.35
2018-04-08T08:47:35.797Z,69.62
2018-04-08T08:48:35.761Z,68.46
2018-04-08T08:49:35.834Z,67.92
2018-04-08T08:50:35.804Z,66.39
2018-04-08T08:51:35.822Z,65.23
2018-04-08T08:52:35.842Z,65.49
2018-04-08T08:53:35.886Z,67.18
2018-04-08T08:54:35.888Z,65.59
2018-04-08T08:55:35.903Z,65.30
2018-04-08T08:56:35.932Z,65.39
2018-04-08T08:57:35.951Z,65.68
2018-04-08T08:58:35.959Z,65.68
2018-04-08T08:59:35.986Z,64.85
2018-04-08T09:00:36.008Z,65.43
2018-04-08T09:01:36.032Z,63.92
2018-04-08T09:02:36.050Z,63.73
2018-04-08T09:03:36.063Z,64.12
2018-04-08T09:04:36.089Z,64.50
2018-04-08T09:05:36.120Z,62.87
2018-04-08T09:06:36.238Z,61.24
2018-04-08T09:07:36.144Z,63.51
2018-04-08T09:08:36.167Z,65.33
2018-04-08T09:09:36.182Z,66.45
2018-04-08T09:10:36.233Z,67.57
2018-04-08T09:11:36.227Z,70.31
2018-04-08T09:12:36.254Z,69.45
2018-04-08T09:13:36.272Z,68.18
2018-04-08T09:14:36.303Z,66.77
2018-04-08T09:15:36.307Z,66.93
2018-04-08T09:16:36.325Z,67.50
2018-04-08T09:17:36.346Z,66.64
2018-04-08T09:18:36.364Z,66.49
2018-04-08T09:19:36.386Z,66.58
2018-04-08T09:20:36.421Z,66.45
2018-04-08T09:21:36.429Z,66.58
2018-04-08T09:22:36.445Z,66.45
2018-04-08T09:23:36.467Z,67.47
2018-04-08T09:24:36.485Z,67.95
2018-04-08T09:25:36.509Z,68.59
2018-04-08T09:26:36.535Z,68.59
2018-04-08T09:27:36.628Z,69.64
2018-04-08T09:28:36.567Z,70.95
2018-04-08T09:29:36.616Z,70.12
2018-04-08T09:30:36.604Z,69.77
2018-04-08T09:31:36.682Z,68.66
2018-04-08T09:32:36.646Z,68.02
2018-04-08T09:33:36.663Z,67.92
2018-04-08T09:34:36.684Z,67.73
2018-04-08T09:35:36.704Z,68.18
2018-04-08T09:36:36.724Z,69.81
2018-04-08T09:37:36.801Z,69.68
2018-04-08T09:38:36.772Z,71.84
2018-04-08T09:39:36.782Z,73.19
2018-04-08T09:40:36.813Z,73.32
2018-04-08T09:41:36.829Z,70.61
2018-04-08T09:42:36.840Z,68.15
2018-04-08T09:43:36.922Z,67.96
2018-04-08T09:44:36.896Z,66.49
2018-04-08T09:45:36.928Z,65.43
2018-04-08T09:46:36.918Z,67.54
2018-04-08T09:47:36.942Z,66.67
2018-04-08T09:48:36.964Z,68.37
2018-04-08T09:49:37.044Z,69.13
2018-04-08T09:50:37.031Z,68.56
2018-04-08T09:51:37.135Z,68.79
2018-04-08T09:52:37.042Z,67.83
2018-04-08T09:53:37.062Z,68.12
2018-04-08T09:54:37.083Z,68.66
2018-04-08T09:55:37.150Z,70.73
2018-04-08T09:56:37.160Z,72.61
2018-04-08T09:57:37.139Z,73.44
2018-04-08T09:58:37.170Z,74.68
2018-04-08T09:59:37.181Z,75.83
2018-04-08T10:00:37.209Z,75.89
2018-04-08T10:01:37.272Z,76.84
2018-04-08T10:02:37.321Z,77.42
2018-04-08T10:03:37.272Z,77.61
2018-04-08T10:04:37.280Z,77.42
2018-04-08T10:05:37.368Z,75.48
2018-04-08T10:06:37.328Z,72.45
2018-04-08T10:07:37.340Z,68.40
2018-04-08T10:08:37.374Z,66.23
2018-04-08T10:09:37.376Z,63.09
2018-04-08T10:10:37.394Z,62.32
2018-04-08T10:11:37.416Z,60.94
2018-04-08T10:12:37.434Z,58.28
2018-04-08T10:13:37.455Z,59.02
2018-04-08T10:14:37.513Z,62.04
2018-04-08T10:15:37.497Z,62.39
2018-04-08T10:16:37.519Z,65.14
2018-04-08T10:17:37.559Z,64.37
2018-04-08T10:18:37.557Z,66.35
2018-04-08T10:19:37.641Z,66.80
2018-04-08T10:20:37.597Z,69.07
2018-04-08T10:21:37.618Z,69.64
2018-04-08T10:22:37.637Z,70.03
2018-04-08T10:23:37.661Z,70.03
2018-04-08T10:24:37.678Z,69.74
2018-04-08T10:25:37.746Z,69.54
2018-04-08T10:26:37.715Z,69.64
2018-04-08T10:27:37.735Z,69.64
2018-04-08T10:28:37.762Z,68.21
2018-04-08T10:29:37.782Z,68.11
2018-04-08T10:30:37.794Z,69.07
2018-04-08T10:31:37.816Z,70.79
2018-04-08T10:32:37.846Z,71.46
2018-04-08T10:33:37.853Z,73.63
2018-04-08T10:34:37.878Z,73.82
2018-04-08T10:35:37.899Z,74.11
2018-04-08T10:36:37.918Z,74.77
2018-04-08T10:37:37.935Z,75.07
2018-04-08T10:38:37.955Z,73.54
2018-04-08T10:39:37.980Z,73.34
2018-04-08T10:40:37.991Z,73.24
2018-04-08T10:41:38.012Z,72.09
2018-04-08T10:42:38.084Z,71.17
2018-04-08T10:43:38.052Z,71.46
2018-04-08T10:44:38.069Z,69.39
2018-04-08T10:45:38.087Z,69.10
2018-04-08T10:46:38.115Z,69.68
2018-04-08T10:47:38.125Z,68.81
2018-04-08T10:48:38.146Z,68.85
2018-04-08T10:49:38.166Z,66.10
2018-04-08T10:50:38.180Z,66.39
2018-04-08T10:51:38.221Z,65.43
2018-04-08T10:52:38.221Z,65.43
2018-04-08T10:53:38.251Z,64.63
2018-04-08T10:54:38.271Z,67.12
2018-04-08T10:55:38.283Z,65.52
2018-04-08T10:56:38.309Z,62.04
2018-04-08T10:57:38.320Z,60.82
2018-04-08T10:58:38.338Z,57.29
2018-04-08T10:59:38.387Z,56.04
2018-04-08T11:00:38.385Z,55.98
2018-04-08T11:01:38.423Z,56.00
2018-04-08T11:02:38.432Z,55.83
2018-04-08T11:03:38.448Z,56.70
2018-04-08T11:04:38.461Z,53.94
2018-04-08T11:05:38.559Z,53.55
2018-04-08T11:06:38.500Z,53.67
2018-04-08T11:07:38.526Z,53.36
2018-04-08T11:08:38.553Z,55.52
2018-04-08T11:09:38.574Z,56.77
2018-04-08T11:10:38.588Z,55.38
2018-04-08T11:11:38.615Z,52.13
2018-04-08T11:12:38.626Z,49.91
2018-04-08T11:13:38.701Z,50.73
2018-04-08T11:14:38.679Z,53.57
2018-04-08T11:15:38.701Z,54.34
2018-04-08T11:16:38.715Z,55.76
2018-04-08T11:17:38.735Z,58.10
2018-04-08T11:18:38.758Z,58.77
2018-04-08T11:19:38.781Z,57.43
2018-04-08T11:20:38.801Z,57.71
2018-04-08T11:21:38.825Z,58.00
2018-04-08T11:22:38.881Z,58.20
2018-04-08T11:23:38.864Z,58.07
2018-04-08T11:24:38.884Z,58.52
2018-04-08T11:25:38.918Z,59.00
2018-04-08T11:26:38.929Z,57.78
2018-04-08T11:27:38.948Z,58.87
2018-04-08T11:28:38.979Z,59.73
2018-04-08T11:29:38.989Z,58.83
2018-04-08T11:30:39.013Z,57.15
2018-04-08T11:31:39.034Z,58.22
2018-04-08T11:32:39.055Z,59.28
2018-04-08T11:33:39.155Z,61.36
2018-04-08T11:34:39.102Z,63.51
2018-04-08T11:35:39.131Z,64.37
2018-04-08T11:36:39.139Z,65.78
2018-04-08T11:37:39.158Z,65.94
2018-04-08T11:38:39.179Z,64.72
2018-04-08T11:39:39.198Z,65.59
2018-04-08T11:40:39.219Z,63.28
2018-04-08T11:41:39.253Z,62.87
2018-04-08T11:42:39.262Z,63.92
2018-04-08T11:43:39.290Z,65.84
2018-04-08T11:44:39.303Z,65.14
2018-04-08T11:45:39.330Z,66.58
2018-04-08T11:46:39.345Z,66.19
2018-04-08T11:47:39.366Z,66.10
2018-04-08T11:48:39.385Z,66.58
2018-04-08T11:49:39.406Z,66.77
2018-04-08T11:50:39.430Z,66.93
2018-04-08T11:51:39.445Z,67.83
2018-04-08T11:52:39.469Z,67.25
2018-04-08T11:53:39.488Z,68.37
2018-04-08T11:54:39.523Z,68.91
2018-04-08T11:55:39.539Z,69.39
2018-04-08T11:56:39.589Z,68.46
2018-04-08T11:57:39.568Z,68.08
2018-04-08T11:58:39.598Z,67.92
2018-04-08T11:59:39.609Z,66.77
2018-04-08T12:00:39.632Z,64.43
2018-04-08T12:01:39.649Z,62.26
2018-04-08T12:02:39.721Z,60.82
2018-04-08T12:03:39.692Z,60.94
2018-04-08T12:04:39.709Z,60.43
2018-04-08T12:05:39.729Z,59.89
2018-04-08T12:06:39.748Z,61.62
2018-04-08T12:07:39.770Z,60.38
2018-04-08T12:08:39.794Z,58.96
2018-04-08T12:09:39.810Z,59.80
2018-04-08T12:10:39.833Z,59.64
2018-04-08T12:11:39.860Z,59.61
2018-04-08T12:12:39.874Z,58.58
2018-04-08T12:13:39.901Z,57.33
2018-04-08T12:14:39.915Z,57.14
2018-04-08T12:15:39.937Z,58.94
2018-04-08T12:16:39.956Z,61.49
2018-04-08T12:17:39.976Z,62.87
2018-04-08T12:18:39.996Z,62.96
2018-04-08T12:19:40.018Z,61.55
2018-04-08T12:20:40.037Z,59.80
2018-04-08T12:21:40.066Z,59.64
2018-04-08T12:22:40.081Z,60.05
2018-04-08T12:23:40.097Z,63.00
2018-04-08T12:24:40.119Z,61.78
2018-04-08T12:25:40.153Z,60.82
2018-04-08T12:26:40.161Z,60.22
2018-04-08T12:27:40.181Z,61.11
2018-04-08T12:28:40.202Z,61.66
2018-04-08T12:29:40.222Z,62.13
2018-04-08T12:30:40.238Z,61.85
2018-04-08T12:31:40.352Z,62.90
2018-04-08T12:32:40.280Z,62.07
2018-04-08T12:33:40.314Z,61.43
2018-04-08T12:34:40.321Z,58.03
2018-04-08T12:35:40.352Z,57.75
2018-04-08T12:36:40.407Z,57.71
2018-04-08T12:37:40.388Z,59.41
2018-04-08T12:38:40.399Z,60.11
2018-04-08T12:39:40.420Z,60.85
2018-04-08T12:40:40.442Z,61.91
2018-04-08T12:41:40.464Z,60.25
2018-04-08T12:42:40.504Z,62.10
2018-04-08T12:43:40.514Z,63.06
2018-04-08T12:44:40.526Z,61.05
2018-04-08T12:45:40.545Z,62.01
2018-04-08T12:46:40.561Z,63.42
2018-04-08T12:47:40.584Z,65.43
2018-04-08T12:48:40.656Z,63.60
2018-04-08T12:49:40.622Z,62.81
2018-04-08T12:50:40.654Z,64.53
2018-04-08T12:51:40.669Z,65.78
2018-04-08T12:52:40.685Z,66.06
2018-04-08T12:53:40.704Z,65.59